Time;durP1;ratioP1;P1;durP2;ratioP2;P2;SDS_P1;SDS_P2;PMS_P1;PMS_P2;Temp;Humidity;BMP_temperature;BMP_pressure;BME280_temperature;BME280_humidity;BME280_pressure;Samples;Min_cycle;Max_cycle;Signal;HPM_P1;HPM_P2
2022/10/02 00:01:46;;;;;;;5.75;1.60;;;;;;;;;;5035901;28;20108;-22
2022/10/02 00:04:14;;;;;;;3.63;2.00;;;;;;;;;;5035258;28;20433;-22
2022/10/02 00:06:43;;;;;;;2.97;1.58;;;;;;;;;;5035712;28;20455;-23
2022/10/02 00:09:13;;;;;;;3.00;1.88;;;;;;;;;;5035988;28;20025;-23
2022/10/02 00:11:44;;;;;;;2.30;1.50;;;;;;;;;;5035700;28;20057;-22
2022/10/02 00:14:15;;;;;;;3.13;1.45;;;;;;;;;;5035606;28;20467;-22
2022/10/02 00:16:41;;;;;;;;;;;;;;;;;;5035980;28;20112;-25
2022/10/02 00:19:11;;;;;;;2.33;1.73;;;;;;;;;;5035816;28;19962;-22
2022/10/02 00:21:47;;;;;;;2.67;1.83;;;;;;;;;;5035522;28;20037;-22
2022/10/02 00:24:34;;;;;;;3.88;2.35;;;;;;;;;;5036258;28;20406;-22
2022/10/02 00:27:20;;;;;;;5.22;2.10;;;;;;;;;;5035346;28;20025;-22
2022/10/02 00:29:51;;;;;;;2.50;1.70;;;;;;;;;;5035183;28;20033;-22
2022/10/02 00:32:26;;;;;;;2.70;1.60;;;;;;;;;;5035493;28;20331;-23
2022/10/02 00:35:16;;;;;;;2.67;1.55;;;;;;;;;;5035478;28;20121;-22
2022/10/02 00:37:54;;;;;;;5.32;1.67;;;;;;;;;;5035688;28;20022;-25
2022/10/02 00:40:35;;;;;;;3.67;1.90;;;;;;;;;;5035186;28;20022;-23
2022/10/02 00:43:17;;;;;;;3.38;1.70;;;;;;;;;;5035297;28;20037;-22
2022/10/02 00:46:02;;;;;;;5.88;1.40;;;;;;;;;;5034493;28;20025;-22
2022/10/02 00:48:31;;;;;;;3.72;1.50;;;;;;;;;;5035302;28;20493;-22
2022/10/02 00:51:06;;;;;;;3.25;1.75;;;;;;;;;;5034967;28;20098;-22
2022/10/02 00:53:33;;;;;;;1.70;1.55;;;;;;;;;;5034820;28;20052;-23
2022/10/02 00:56:11;;;;;;;3.67;1.40;;;;;;;;;;5035350;28;20028;-23
2022/10/02 00:58:55;;;;;;;4.25;1.77;;;;;;;;;;5035085;28;20037;-23
2022/10/02 01:01:23;;;;;;;5.45;1.75;;;;;;;;;;5035102;28;20033;-22
2022/10/02 01:03:55;;;;;;;2.97;1.33;;;;;;;;;;5034567;28;20053;-23
2022/10/02 01:06:26;;;;;;;2.72;1.60;;;;;;;;;;5034721;28;20033;-22
2022/10/02 01:08:53;;;;;;;4.07;2.00;;;;;;;;;;5034642;28;20140;-22
2022/10/02 01:11:21;;;;;;;5.20;1.77;;;;;;;;;;5034979;28;20029;-23
2022/10/02 01:13:47;;;;;;;2.38;1.50;;;;;;;;;;5034554;28;20025;-22
2022/10/02 01:16:14;;;;;;;2.80;1.50;;;;;;;;;;5034854;28;20033;-25
2022/10/02 01:18:41;;;;;;;3.15;2.03;;;;;;;;;;5034854;28;20035;-22
2022/10/02 01:21:13;;;;;;;7.05;1.85;;;;;;;;;;5034885;28;20091;-23
2022/10/02 01:24:02;;;;;;;3.88;1.58;;;;;;;;;;5034485;28;20389;-32
2022/10/02 01:26:28;;;;;;;2.58;1.60;;;;;;;;;;5034465;28;20029;-23
2022/10/02 01:28:55;;;;;;;5.97;1.88;;;;;;;;;;5034529;28;20090;-23
2022/10/02 01:31:23;;;;;;;4.97;2.25;;;;;;;;;;5034763;28;20030;-23
2022/10/02 01:33:49;;;;;;;3.75;1.90;;;;;;;;;;5034364;28;20028;-25
2022/10/02 01:36:16;;;;;;;4.88;2.17;;;;;;;;;;5034623;28;20088;-23
2022/10/02 01:38:43;;;;;;;6.57;2.05;;;;;;;;;;5034668;28;20022;-23
2022/10/02 01:41:10;;;;;;;4.40;2.10;;;;;;;;;;5034330;28;20028;-23
2022/10/02 01:43:39;;;;;;;4.88;2.40;;;;;;;;;;5034575;28;20038;-23
2022/10/02 01:46:23;;;;;;;2.83;1.80;;;;;;;;;;5034586;28;20347;-24
2022/10/02 01:48:50;;;;;;;3.20;1.90;;;;;;;;;;5034252;28;20033;-22
2022/10/02 01:51:25;;;;;;;2.92;1.70;;;;;;;;;;5016949;28;20033;-23
2022/10/02 01:54:09;;;;;;;3.95;1.73;;;;;;;;;;5034194;28;20083;-24
2022/10/02 01:56:45;;;;;;;5.50;1.98;;;;;;;;;;5036081;28;20045;-23
2022/10/02 01:59:25;;;;;;;6.03;2.10;;;;;;;;;;5038790;28;20106;-22
2022/10/02 02:01:51;;;;;;;3.53;1.70;;;;;;;;;;5038042;28;20469;-25
2022/10/02 02:04:24;;;;;;;4.55;1.73;;;;;;;;;;5020453;28;20069;-23
2022/10/02 02:07:09;;;;;;;3.40;2.08;;;;;;;;;;5038370;28;20362;-23
2022/10/02 02:09:35;;;;;;;3.50;1.40;;;;;;;;;;5037966;28;20026;-24
2022/10/02 02:12:08;;;;;;;3.85;1.65;;;;;;;;;;5037877;28;20087;-22
2022/10/02 02:14:36;;;;;;;3.40;1.75;;;;;;;;;;5038110;28;20026;-24
2022/10/02 02:17:08;;;;;;;3.58;1.38;;;;;;;;;;5037859;28;20354;-21
2022/10/02 02:19:37;;;;;;;5.05;1.95;;;;;;;;;;5037761;28;20137;-22
2022/10/02 02:22:09;;;;;;;2.70;1.55;;;;;;;;;;5037935;28;20413;-23
2022/10/02 02:24:38;;;;;;;3.88;2.40;;;;;;;;;;5037720;28;20022;-22
2022/10/02 02:27:05;;;;;;;3.47;1.65;;;;;;;;;;5037938;28;20459;-22
2022/10/02 02:29:33;;;;;;;8.13;1.98;;;;;;;;;;5037612;28;20050;-23
2022/10/02 02:32:02;;;;;;;3.60;1.80;;;;;;;;;;5037528;28;20401;-22
2022/10/02 02:34:33;;;;;;;3.60;1.92;;;;;;;;;;5037681;28;20109;-23
2022/10/02 02:37:02;;;;;;;3.42;1.88;;;;;;;;;;5037785;28;20030;-22
2022/10/02 02:39:31;;;;;;;2.83;1.85;;;;;;;;;;5037428;28;20087;-22
2022/10/02 02:42:00;;;;;;;2.80;1.40;;;;;;;;;;5037604;28;20458;-23
2022/10/02 02:44:31;;;;;;;4.15;2.35;;;;;;;;;;5037327;28;20458;-22
2022/10/02 02:47:03;;;;;;;3.17;1.80;;;;;;;;;;5037262;28;20041;-21
2022/10/02 02:49:56;;;;;;;3.67;1.85;;;;;;;;;;5037623;28;20076;-21
2022/10/02 02:52:26;;;;;;;3.63;1.70;;;;;;;;;;5032806;28;20049;-21
2022/10/02 02:54:55;;;;;;;4.80;1.77;;;;;;;;;;5037135;28;20033;-22
2022/10/02 02:57:28;;;;;;;7.82;1.77;;;;;;;;;;5037348;28;20128;-22
2022/10/02 02:59:55;;;;;;;3.17;1.80;;;;;;;;;;5037080;28;20028;-24
2022/10/02 03:02:21;;;;;;;2.40;1.52;;;;;;;;;;5036992;28;20465;-22
2022/10/02 03:04:47;;;;;;;3.03;1.73;;;;;;;;;;5036830;28;20377;-23
2022/10/02 03:07:14;;;;;;;6.43;3.38;;;;;;;;;;5036997;28;20036;-22
2022/10/02 03:09:41;;;;;;;3.35;1.45;;;;;;;;;;5036725;28;20022;-25
2022/10/02 03:12:16;;;;;;;3.47;1.95;;;;;;;;;;5037041;28;20068;-25
2022/10/02 03:14:42;;;;;;;3.05;2.03;;;;;;;;;;5036703;28;20041;-22
2022/10/02 03:17:23;;;;;;;3.67;2.15;;;;;;;;;;5037030;28;20029;-25
2022/10/02 03:20:08;;;;;;;3.75;2.03;;;;;;;;;;5036657;28;20029;-24
2022/10/02 03:22:35;;;;;;;5.88;2.13;;;;;;;;;;5036869;28;20036;-22
2022/10/02 03:25:01;;;;;;;3.97;1.83;;;;;;;;;;5037452;28;20465;-23
2022/10/02 03:27:49;;;;;;;3.47;1.85;;;;;;;;;;5036831;28;20037;-24
2022/10/02 03:30:25;;;;;;;3.70;1.77;;;;;;;;;;5036769;28;20045;-24
2022/10/02 03:32:52;;;;;;;3.22;2.15;;;;;;;;;;5036953;28;20035;-22
2022/10/02 03:35:19;;;;;;;3.80;1.77;;;;;;;;;;5036624;28;20033;-22
2022/10/02 03:37:47;;;;;;;4.13;1.55;;;;;;;;;;5036904;28;20025;-22
2022/10/02 03:40:14;;;;;;;2.83;1.65;;;;;;;;;;5018950;28;20052;-22
2022/10/02 03:42:40;;;;;;;3.88;1.70;;;;;;;;;;5036196;28;20095;-22
2022/10/02 03:45:06;;;;;;;4.72;1.90;;;;;;;;;;5036256;28;20106;-22
2022/10/02 03:47:32;;;;;;;11.70;3.05;;;;;;;;;;5036124;28;20091;-23
2022/10/02 03:49:58;;;;;;;1.88;1.40;;;;;;;;;;5036686;28;20032;-22
2022/10/02 03:52:25;;;;;;;3.97;1.90;;;;;;;;;;5036175;28;20091;-22
2022/10/02 03:54:55;;;;;;;2.58;1.83;;;;;;;;;;5035909;28;20045;-23
2022/10/02 03:57:25;;;;;;;3.88;1.60;;;;;;;;;;5036016;28;20032;-23
2022/10/02 03:59:51;;;;;;;3.55;1.90;;;;;;;;;;5036498;28;20029;-23
2022/10/02 04:02:23;;;;;;;3.10;1.55;;;;;;;;;;5035846;28;20159;-23
2022/10/02 04:04:54;;;;;;;2.40;1.48;;;;;;;;;;5035775;28;20054;-22
2022/10/02 04:07:23;;;;;;;2.95;1.40;;;;;;;;;;5035891;28;20079;-22
2022/10/02 04:09:58;;;;;;;1.98;1.63;;;;;;;;;;5036320;28;20094;-22
2022/10/02 04:12:35;;;;;;;2.85;1.30;;;;;;;;;;5035839;28;20036;-22
2022/10/02 04:15:06;;;;;;;3.60;1.85;;;;;;;;;;5036151;28;20022;-22
2022/10/02 04:17:42;;;;;;;2.42;1.67;;;;;;;;;;5035635;28;20053;-22
2022/10/02 04:20:23;;;;;;;2.85;1.70;;;;;;;;;;5035367;28;20030;-22
2022/10/02 04:22:54;;;;;;;3.13;1.53;;;;;;;;;;5035779;28;20048;-23
2022/10/02 04:25:27;;;;;;;2.17;1.33;;;;;;;;;;5035399;28;20056;-22
2022/10/02 04:28:03;;;;;;;2.97;1.80;;;;;;;;;;5035347;28;20029;-22
2022/10/02 04:30:29;;;;;;;3.92;1.70;;;;;;;;;;5035587;28;20041;-22
2022/10/02 04:32:57;;;;;;;4.20;1.90;;;;;;;;;;5035488;28;20069;-22
2022/10/02 04:35:24;;;;;;;3.15;1.73;;;;;;;;;;5035213;28;20036;-24
2022/10/02 04:38:13;;;;;;;2.85;1.77;;;;;;;;;;5017820;28;20114;-23
2022/10/02 04:40:54;;;;;;;3.38;1.98;;;;;;;;;;4990011;28;20033;-22
2022/10/02 04:43:26;;;;;;;3.35;2.28;;;;;;;;;;5035207;28;20025;-23
2022/10/02 04:46:08;;;;;;;2.40;1.48;;;;;;;;;;5035408;28;20067;-22
2022/10/02 04:48:43;;;;;;;2.83;1.73;;;;;;;;;;5035321;28;20037;-25
2022/10/02 04:51:24;;;;;;;3.35;1.50;;;;;;;;;;5035568;28;20029;-26
2022/10/02 04:53:59;;;;;;;2.70;1.90;;;;;;;;;;5035048;28;20029;-22
2022/10/02 04:56:43;;;;;;;2.70;1.88;;;;;;;;;;5035183;28;20033;-23
2022/10/02 04:59:21;;;;;;;7.70;1.98;;;;;;;;;;5035204;28;20017;-23
2022/10/02 05:02:07;;;;;;;2.00;1.40;;;;;;;;;;5035183;28;20068;-23
2022/10/02 05:04:51;;;;;;;3.33;1.70;;;;;;;;;;5034504;28;20056;-23
2022/10/02 05:07:34;;;;;;;3.22;1.80;;;;;;;;;;5034754;28;20025;-22
2022/10/02 05:10:06;;;;;;;4.68;2.25;;;;;;;;;;5035060;28;20030;-24
2022/10/02 05:12:35;;;;;;;4.57;1.70;;;;;;;;;;5034630;28;20033;-23
2022/10/02 05:15:20;;;;;;;3.83;1.63;;;;;;;;;;5034608;28;20025;-22
2022/10/02 05:18:01;;;;;;;5.22;1.77;;;;;;;;;;5034629;28;20029;-22
2022/10/02 05:20:30;;;;;;;3.42;1.90;;;;;;;;;;5034901;28;20101;-22
2022/10/02 05:23:04;;;;;;;2.67;1.45;;;;;;;;;;5034742;28;20362;-22
2022/10/02 05:25:36;;;;;;;2.70;1.52;;;;;;;;;;5034890;28;20026;-23
2022/10/02 05:28:26;;;;;;;4.07;1.38;;;;;;;;;;5034754;28;20033;-22
2022/10/02 05:31:15;;;;;;;1.27;1.17;;;;;;;;;;5034549;28;20041;-25
2022/10/02 05:33:50;;;;;;;2.38;1.50;;;;;;;;;;5033878;28;20038;-23
2022/10/02 05:36:16;;;;;;;3.35;1.63;;;;;;;;;;5034398;28;20030;-22
2022/10/02 05:38:56;;;;;;;3.92;1.45;;;;;;;;;;5034456;28;20026;-23
2022/10/02 05:41:26;;;;;;;2.85;1.30;;;;;;;;;;5034773;28;20021;-23
2022/10/02 05:43:57;;;;;;;3.20;1.77;;;;;;;;;;5034545;28;20048;-23
2022/10/02 05:46:25;;;;;;;1.98;1.35;;;;;;;;;;5034676;28;20585;-23
2022/10/02 05:48:58;;;;;;;2.50;1.67;;;;;;;;;;5034323;28;20029;-22
2022/10/02 05:51:38;;;;;;;2.67;1.80;;;;;;;;;;5034582;28;20207;-22
2022/10/02 05:54:15;;;;;;;3.17;1.85;;;;;;;;;;5034261;28;20029;-22
2022/10/02 05:56:47;;;;;;;2.28;1.33;;;;;;;;;;5034202;28;20022;-22
2022/10/02 05:59:28;;;;;;;7.10;1.50;;;;;;;;;;5034521;28;20412;-23
2022/10/02 06:01:56;;;;;;;2.35;1.63;;;;;;;;;;5034979;28;20053;-22
2022/10/02 06:04:22;;;;;;;3.13;1.40;;;;;;;;;;5034185;28;20056;-24
2022/10/02 06:06:54;;;;;;;2.05;1.48;;;;;;;;;;5034454;28;20033;-23
2022/10/02 06:09:25;;;;;;;3.20;1.60;;;;;;;;;;5034460;28;20041;-23
2022/10/02 06:12:01;;;;;;;3.05;2.03;;;;;;;;;;5016898;28;20112;-23
2022/10/02 06:14:30;;;;;;;2.30;1.65;;;;;;;;;;5034104;28;20026;-23
2022/10/02 06:17:00;;;;;;;1.77;1.30;;;;;;;;;;5034089;28;20040;-22
2022/10/02 06:19:38;;;;;;;4.88;2.10;;;;;;;;;;5034316;28;20022;-22
2022/10/02 06:22:11;;;;;;;2.38;1.45;;;;;;;;;;5034259;28;20092;-23
2022/10/02 06:24:40;;;;;;;3.03;1.45;;;;;;;;;;5034047;28;20030;-23
2022/10/02 06:27:10;;;;;;;5.55;1.50;;;;;;;;;;5034235;28;20021;-22
2022/10/02 06:29:42;;;;;;;3.40;1.52;;;;;;;;;;5034249;28;20052;-22
2022/10/02 06:32:34;;;;;;;2.28;1.80;;;;;;;;;;5033863;28;20037;-23
2022/10/02 06:35:01;;;;;;;2.50;1.48;;;;;;;;;;5030090;28;20057;-21
2022/10/02 06:37:27;;;;;;;3.10;1.58;;;;;;;;;;5033832;28;20053;-23
2022/10/02 06:40:16;;;;;;;2.55;1.70;;;;;;;;;;5033891;28;20058;-24
2022/10/02 06:42:51;;;;;;;2.88;1.63;;;;;;;;;;5034230;28;20399;-21
2022/10/02 06:45:26;;;;;;;2.33;1.27;;;;;;;;;;5037430;28;20065;-27
2022/10/02 06:48:22;;;;;;;2.15;1.50;;;;;;;;;;5037616;28;20075;-22
2022/10/02 06:50:57;;;;;;;2.38;1.83;;;;;;;;;;5037280;28;20037;-22
2022/10/02 06:53:29;;;;;;;2.85;1.50;;;;;;;;;;5037455;28;20022;-22
2022/10/02 06:55:58;;;;;;;2.88;1.33;;;;;;;;;;5037719;28;20029;-22
2022/10/02 06:58:33;;;;;;;2.88;1.50;;;;;;;;;;5037125;28;20116;-22
2022/10/02 07:00:59;;;;;;;1.98;1.25;;;;;;;;;;5037096;28;20104;-23
2022/10/02 07:03:32;;;;;;;2.30;1.77;;;;;;;;;;5036879;28;20080;-22
2022/10/02 07:05:58;;;;;;;4.25;2.20;;;;;;;;;;4997967;28;20455;-25
2022/10/02 07:08:42;;;;;;;4.05;2.13;;;;;;;;;;4997827;28;20038;-22
2022/10/02 07:11:18;;;;;;;2.70;1.65;;;;;;;;;;4997847;28;20038;-23
2022/10/02 07:13:56;;;;;;;3.10;1.80;;;;;;;;;;4997387;28;20069;-23
2022/10/02 07:16:47;;;;;;;2.97;1.85;;;;;;;;;;4997699;28;20031;-22
2022/10/02 07:19:27;;;;;;;3.55;2.55;;;;;;;;;;4997476;28;20022;-22
2022/10/02 07:22:01;;;;;;;3.05;1.33;;;;;;;;;;4997631;28;20418;-22
2022/10/02 07:24:42;;;;;;;3.47;1.98;;;;;;;;;;4996428;28;20041;-23
2022/10/02 07:27:13;;;;;;;3.95;1.75;;;;;;;;;;4997225;28;20043;-22
2022/10/02 07:29:51;;;;;;;1.75;1.50;;;;;;;;;;4997498;28;20368;-24
2022/10/02 07:32:30;;;;;;;2.33;1.15;;;;;;;;;;4997537;28;20042;-22
2022/10/02 07:34:59;;;;;;;4.40;2.22;;;;;;;;;;4997343;28;20459;-22
2022/10/02 07:37:32;;;;;;;3.15;1.65;;;;;;;;;;4997350;28;20062;-23
2022/10/02 07:40:11;;;;;;;2.08;1.58;;;;;;;;;;4996956;28;20440;-22
2022/10/02 07:42:49;;;;;;;3.33;1.63;;;;;;;;;;4996906;28;20030;-22
2022/10/02 07:45:25;;;;;;;2.03;1.40;;;;;;;;;;4997214;28;20395;-22
2022/10/02 07:48:00;;;;;;;2.90;1.50;;;;;;;;;;4997610;28;20073;-22
2022/10/02 07:50:26;;;;;;;1.88;1.48;;;;;;;;;;4996839;28;20030;-22
2022/10/02 07:53:03;;;;;;;1.98;1.52;;;;;;;;;;4996726;28;20066;-24
2022/10/02 07:55:29;;;;;;;2.95;1.55;;;;;;;;;;4996472;28;20034;-23
2022/10/02 07:58:01;;;;;;;2.08;1.40;;;;;;;;;;4996607;28;20042;-22
2022/10/02 08:00:29;;;;;;;3.22;1.80;;;;;;;;;;4997397;28;20026;-22
2022/10/02 08:03:01;;;;;;;2.05;1.35;;;;;;;;;;4996511;28;20041;-22
2022/10/02 08:05:30;;;;;;;1.35;1.25;;;;;;;;;;5011905;28;20157;-22
2022/10/02 08:07:58;;;;;;;2.72;1.77;;;;;;;;;;5016609;28;20030;-23
2022/10/02 08:10:27;;;;;;;3.08;1.63;;;;;;;;;;5016038;28;20026;-22
2022/10/02 08:12:56;;;;;;;1.83;1.65;;;;;;;;;;5016207;28;20056;-22
2022/10/02 08:15:24;;;;;;;3.50;1.60;;;;;;;;;;5015831;28;20095;-22
2022/10/02 08:17:55;;;;;;;1.70;1.30;;;;;;;;;;5015862;28;20050;-22
2022/10/02 08:20:30;;;;;;;1.63;1.50;;;;;;;;;;5015879;28;20022;-22
2022/10/02 08:23:05;;;;;;;3.08;1.52;;;;;;;;;;5015680;28;20061;-23
2022/10/02 08:25:36;;;;;;;2.10;1.30;;;;;;;;;;5015744;28;20124;-22
2022/10/02 08:28:05;;;;;;;2.78;1.52;;;;;;;;;;5016052;28;20100;-22
2022/10/02 08:30:32;;;;;;;4.05;1.52;;;;;;;;;;5015939;28;20465;-22
2022/10/02 08:32:58;;;;;;;3.70;1.48;;;;;;;;;;5015850;28;20050;-23
2022/10/02 08:35:32;;;;;;;2.97;1.60;;;;;;;;;;5016055;28;20038;-22
2022/10/02 08:38:19;;;;;;;1.85;1.40;;;;;;;;;;5016178;28;20021;-22
2022/10/02 08:41:03;;;;;;;2.65;1.63;;;;;;;;;;5015742;28;20034;-22
2022/10/02 08:43:45;;;;;;;1.52;1.10;;;;;;;;;;5015423;28;20022;-22
2022/10/02 08:46:23;;;;;;;2.08;1.67;;;;;;;;;;5015752;28;20029;-22
2022/10/02 08:48:59;;;;;;;2.40;1.52;;;;;;;;;;5015420;28;20578;-22
2022/10/02 08:51:43;;;;;;;2.05;1.40;;;;;;;;;;5015617;28;20104;-21
2022/10/02 08:54:09;;;;;;;3.90;1.80;;;;;;;;;;5015457;28;20026;-23
2022/10/02 08:56:35;;;;;;;2.15;1.67;;;;;;;;;;5015453;28;20052;-21
2022/10/02 08:59:20;;;;;;;2.63;1.60;;;;;;;;;;5015215;28;20022;-22
2022/10/02 09:01:49;;;;;;;3.63;1.55;;;;;;;;;;5015167;28;20049;-22
2022/10/02 09:04:39;;;;;;;2.35;1.17;;;;;;;;;;5021578;28;20140;-23
2022/10/02 09:07:35;;;;;;;1.90;1.52;;;;;;;;;;5034073;28;20474;-25
2022/10/02 09:10:19;;;;;;;2.13;1.88;;;;;;;;;;4948815;28;20044;-22
2022/10/02 09:12:57;;;;;;;3.13;1.65;;;;;;;;;;5017767;28;20436;-24
2022/10/02 09:15:42;;;;;;;2.97;1.63;;;;;;;;;;5034659;28;20025;-23
2022/10/02 09:18:15;;;;;;;2.95;1.60;;;;;;;;;;5034916;28;20366;-22
2022/10/02 09:20:50;;;;;;;1.88;1.27;;;;;;;;;;5035196;28;20030;-24
2022/10/02 09:23:35;;;;;;;2.33;1.75;;;;;;;;;;5034511;28;20022;-23
2022/10/02 09:26:16;;;;;;;2.47;1.55;;;;;;;;;;5035335;28;20094;-22
2022/10/02 09:28:42;;;;;;;;;;;;;;;;;;5034949;28;20057;-22
2022/10/02 09:31:08;;;;;;;3.63;1.30;;;;;;;;;;5034576;28;19909;-23
2022/10/02 09:33:34;;;;;;;2.50;1.52;;;;;;;;;;5034678;28;20033;-22
2022/10/02 09:36:28;;;;;;;3.20;1.83;;;;;;;;;;5034385;28;20075;-22
2022/10/02 09:39:18;;;;;;;2.25;1.30;;;;;;;;;;5034538;28;20085;-22
2022/10/02 09:42:06;;;;;;;2.55;1.60;;;;;;;;;;5022510;28;20045;-22
2022/10/02 09:44:57;;;;;;;3.75;1.58;;;;;;;;;;5034680;28;20076;-22
2022/10/02 09:47:34;;;;;;;1.95;1.63;;;;;;;;;;5034392;28;20025;-22
2022/10/02 09:50:00;;;;;;;2.22;1.45;;;;;;;;;;5034881;28;20431;-25
2022/10/02 09:52:41;;;;;;;1.70;1.20;;;;;;;;;;5034251;28;20033;-23
2022/10/02 09:55:26;;;;;;;3.25;1.40;;;;;;;;;;5034522;28;20096;-21
2022/10/02 09:58:04;;;;;;;2.22;1.58;;;;;;;;;;5034834;28;20026;-23
2022/10/02 10:00:43;;;;;;;2.10;1.50;;;;;;;;;;5034531;28;20351;-22
2022/10/02 10:03:28;;;;;;;1.65;1.30;;;;;;;;;;5034090;28;20061;-22
2022/10/02 10:06:16;;;;;;;1.40;1.10;;;;;;;;;;5034187;28;20041;-22
2022/10/02 10:08:43;;;;;;;1.75;1.40;;;;;;;;;;5033701;28;20393;-22
2022/10/02 10:11:10;;;;;;;2.72;1.55;;;;;;;;;;5034687;28;20041;-22
2022/10/02 10:13:58;;;;;;;3.58;1.27;;;;;;;;;;5034332;28;20049;-22
2022/10/02 10:16:43;;;;;;;2.30;1.30;;;;;;;;;;5034360;28;20462;-22
2022/10/02 10:19:09;;;;;;;1.63;1.48;;;;;;;;;;5038145;28;20041;-25
2022/10/02 10:21:54;;;;;;;1.65;1.30;;;;;;;;;;5037800;28;20042;-21
2022/10/02 10:24:40;;;;;;;2.80;1.90;;;;;;;;;;5038059;28;20359;-22
2022/10/02 10:27:31;;;;;;;2.47;1.73;;;;;;;;;;5038035;28;20048;-23
2022/10/02 10:30:03;;;;;;;2.08;1.13;;;;;;;;;;5038296;28;20354;-27
2022/10/02 10:32:48;;;;;;;1.80;1.35;;;;;;;;;;5037614;28;20025;-22
2022/10/02 10:35:17;;;;;;;1.75;1.23;;;;;;;;;;5037539;28;20343;-22
2022/10/02 10:40:42;;;;;;;2.63;2.15;;;;;;;;;;5037577;28;20040;-21
2022/10/02 10:43:09;;;;;;;2.55;1.42;;;;;;;;;;5037685;28;20068;-22
2022/10/02 10:45:53;;;;;;;2.17;1.50;;;;;;;;;;5037424;28;20088;-21
2022/10/02 10:48:38;;;;;;;2.45;1.50;;;;;;;;;;5037352;28;20045;-22
2022/10/02 10:51:13;;;;;;;3.78;1.75;;;;;;;;;;5037855;28;20029;-22
2022/10/02 10:53:45;;;;;;;1.98;1.77;;;;;;;;;;5037120;28;20090;-22
2022/10/02 10:56:16;;;;;;;4.25;1.92;;;;;;;;;;5037075;28;20063;-22
2022/10/02 10:58:42;;;;;;;;;;;;;;;;;;5037826;28;20160;-22
2022/10/02 11:01:13;;;;;;;1.38;1.25;;;;;;;;;;5037038;28;19960;-24
2022/10/02 11:03:39;;;;;;;2.17;1.42;;;;;;;;;;5037028;28;20017;-23
2022/10/02 11:06:14;;;;;;;1.77;1.50;;;;;;;;;;5037828;28;20095;-24
2022/10/02 11:08:48;;;;;;;2.25;1.60;;;;;;;;;;5037305;28;20115;-23
2022/10/02 11:11:32;;;;;;;1.60;1.33;;;;;;;;;;5037246;28;20033;-24
2022/10/02 11:14:04;;;;;;;2.60;1.80;;;;;;;;;;5036781;28;20037;-24
2022/10/02 11:16:49;;;;;;;2.58;1.48;;;;;;;;;;5036732;28;20065;-23
2022/10/02 11:19:27;;;;;;;1.95;1.58;;;;;;;;;;5036735;28;20048;-22
2022/10/02 11:22:17;;;;;;;2.35;1.50;;;;;;;;;;5037206;28;20083;-23
2022/10/02 11:24:43;;;;;;;3.03;1.52;;;;;;;;;;5036674;28;20029;-22
2022/10/02 11:27:29;;;;;;;2.80;1.17;;;;;;;;;;5036912;28;20074;-23
2022/10/02 11:30:15;;;;;;;3.28;1.63;;;;;;;;;;5036010;28;20489;-23
2022/10/02 11:32:53;;;;;;;2.58;1.50;;;;;;;;;;5036763;28;20045;-22
2022/10/02 11:35:25;;;;;;;1.92;1.55;;;;;;;;;;5036710;28;20022;-23
2022/10/02 11:38:00;;;;;;;1.70;1.55;;;;;;;;;;5036633;28;20033;-23
2022/10/02 11:40:48;;;;;;;4.20;2.88;;;;;;;;;;5036919;28;20037;-22
2022/10/02 11:43:21;;;;;;;2.95;1.83;;;;;;;;;;5036552;28;20480;-22
2022/10/02 11:46:02;;;;;;;2.03;1.83;;;;;;;;;;5036196;28;20037;-22
2022/10/02 11:48:30;;;;;;;2.17;1.98;;;;;;;;;;5036497;28;20098;-23
2022/10/02 11:51:09;;;;;;;2.17;1.55;;;;;;;;;;5036737;28;20056;-22
2022/10/02 11:53:44;;;;;;;1.95;1.40;;;;;;;;;;5036075;28;20100;-22
2022/10/02 11:56:29;;;;;;;2.95;1.88;;;;;;;;;;5036011;28;20040;-25
2022/10/02 11:59:21;;;;;;;1.70;1.60;;;;;;;;;;5036290;28;20061;-22
2022/10/02 12:01:54;;;;;;;2.88;1.45;;;;;;;;;;5036272;28;20362;-23
2022/10/02 12:04:21;;;;;;;4.32;1.50;;;;;;;;;;5035970;28;20050;-22
2022/10/02 12:06:59;;;;;;;2.17;1.50;;;;;;;;;;5036140;28;20029;-23
2022/10/02 12:09:35;;;;;;;2.65;1.65;;;;;;;;;;5036104;28;20048;-23
2022/10/02 12:12:40;;;;;;;3.22;1.77;;;;;;;;;;5036012;28;20025;-23
2022/10/02 12:15:15;;;;;;;2.20;1.35;;;;;;;;;;4936908;29;20363;-22
2022/10/02 12:17:41;;;;;;;2.03;1.50;;;;;;;;;;4937169;29;20088;-23
2022/10/02 12:29:39;;;;;;;2.05;1.33;;;;;;;;;;5011004;28;20064;-22
2022/10/02 12:32:11;;;;;;;2.75;1.60;;;;;;;;;;5019249;28;20385;-22
2022/10/02 12:34:38;;;;;;;2.10;1.27;;;;;;;;;;5035348;28;20037;-22
2022/10/02 12:37:30;;;;;;;2.03;1.20;;;;;;;;;;5035197;28;20480;-22
2022/10/02 12:39:56;;;;;;;5.13;1.63;;;;;;;;;;5018379;28;20113;-22
2022/10/02 12:42:40;;;;;;;1.75;1.25;;;;;;;;;;5035151;28;20116;-22
2022/10/02 12:45:27;;;;;;;2.60;1.77;;;;;;;;;;5035502;28;20045;-22
2022/10/02 12:48:01;;;;;;;2.08;1.60;;;;;;;;;;4986001;28;20382;-23
2022/10/02 12:50:53;;;;;;;3.08;1.75;;;;;;;;;;5035386;28;20027;-21
2022/10/02 12:53:35;;;;;;;3.78;1.70;;;;;;;;;;5035125;28;20060;-23
2022/10/02 12:56:20;;;;;;;2.42;1.70;;;;;;;;;;5035210;28;20083;-22
2022/10/02 12:58:51;;;;;;;3.30;1.70;;;;;;;;;;5035196;28;20026;-22
2022/10/02 13:01:20;;;;;;;1.35;1.25;;;;;;;;;;5035461;28;20037;-21
2022/10/02 13:04:01;;;;;;;1.92;1.20;;;;;;;;;;5034526;28;20037;-25
2022/10/02 13:06:48;;;;;;;2.80;1.45;;;;;;;;;;5017473;28;20045;-25
2022/10/02 13:09:33;;;;;;;3.83;1.67;;;;;;;;;;5035164;28;20030;-22
2022/10/02 13:12:11;;;;;;;1.77;1.27;;;;;;;;;;5035438;28;20029;-22
2022/10/02 13:14:52;;;;;;;2.25;1.45;;;;;;;;;;5035032;28;20100;-22
2022/10/02 13:17:24;;;;;;;2.38;1.60;;;;;;;;;;5035220;28;20371;-24
2022/10/02 13:20:11;;;;;;;2.10;1.35;;;;;;;;;;5035193;28;20094;-22
2022/10/02 13:22:45;;;;;;;1.85;1.63;;;;;;;;;;5033559;28;20090;-21
2022/10/02 13:25:20;;;;;;;1.95;1.60;;;;;;;;;;5034583;28;20476;-22
2022/10/02 13:27:52;;;;;;;2.00;1.65;;;;;;;;;;5035078;28;20034;-22
2022/10/02 13:30:18;;;;;;;4.78;1.95;;;;;;;;;;5034821;28;20056;-22
2022/10/02 13:32:51;;;;;;;2.45;2.20;;;;;;;;;;5034435;28;20025;-23
2022/10/02 13:35:29;;;;;;;4.10;1.70;;;;;;;;;;5034712;28;20033;-23
2022/10/02 13:38:02;;;;;;;3.20;1.52;;;;;;;;;;5034767;28;20021;-23
2022/10/02 13:40:31;;;;;;;2.35;1.80;;;;;;;;;;5034469;28;20029;-23
2022/10/02 13:43:17;;;;;;;2.75;1.52;;;;;;;;;;5034363;28;20029;-24
2022/10/02 13:45:50;;;;;;;1.88;1.55;;;;;;;;;;5034331;28;20041;-23
2022/10/02 13:48:31;;;;;;;1.42;1.30;;;;;;;;;;5034676;28;20030;-22
2022/10/02 13:51:06;;;;;;;3.30;1.45;;;;;;;;;;5035068;28;20104;-23
2022/10/02 13:53:47;;;;;;;1.65;1.55;;;;;;;;;;5037530;28;20592;-24
2022/10/02 13:56:14;;;;;;;1.58;1.35;;;;;;;;;;5038258;28;20399;-23
2022/10/02 13:58:43;;;;;;;1.42;1.17;;;;;;;;;;5038540;28;20340;-24
2022/10/02 14:01:29;;;;;;;1.50;1.40;;;;;;;;;;5038275;28;20362;-24
2022/10/02 14:04:14;;;;;;;1.85;1.60;;;;;;;;;;5038049;28;20115;-23
2022/10/02 14:07:00;;;;;;;1.70;1.42;;;;;;;;;;5038422;28;20044;-23
2022/10/02 14:09:38;;;;;;;1.90;1.30;;;;;;;;;;5038061;28;20029;-24
2022/10/02 14:12:10;;;;;;;1.67;1.45;;;;;;;;;;5038285;28;20424;-22
2022/10/02 14:14:44;;;;;;;1.58;1.42;;;;;;;;;;5037980;28;20048;-23
2022/10/02 14:17:17;;;;;;;2.15;1.40;;;;;;;;;;5038207;28;20029;-22
2022/10/02 14:19:52;;;;;;;2.42;1.65;;;;;;;;;;5037921;28;20119;-22
2022/10/02 14:22:35;;;;;;;1.83;1.70;;;;;;;;;;5038849;28;20025;-24
2022/10/02 14:25:21;;;;;;;3.00;2.00;;;;;;;;;;5038116;28;20029;-27
2022/10/02 14:28:06;;;;;;;2.90;1.55;;;;;;;;;;5037742;28;20033;-23
2022/10/02 14:30:39;;;;;;;1.35;1.25;;;;;;;;;;5037984;28;20102;-22
2022/10/02 14:33:23;;;;;;;3.25;1.88;;;;;;;;;;5037921;28;20057;-22
2022/10/02 14:36:06;;;;;;;1.58;1.48;;;;;;;;;;5037551;28;20037;-22
2022/10/02 14:38:41;;;;;;;2.03;1.50;;;;;;;;;;5037888;28;20030;-23
2022/10/02 14:41:26;;;;;;;1.75;1.40;;;;;;;;;;5037817;28;20370;-24
2022/10/02 14:44:04;;;;;;;1.80;1.70;;;;;;;;;;5037493;28;20026;-22
2022/10/02 14:46:42;;;;;;;2.08;1.60;;;;;;;;;;5037707;28;20044;-24
2022/10/02 14:49:11;;;;;;;2.75;1.40;;;;;;;;;;5037318;28;20029;-23
2022/10/02 14:51:58;;;;;;;2.65;1.60;;;;;;;;;;5037561;28;20072;-23
2022/10/02 14:54:25;;;;;;;2.03;1.52;;;;;;;;;;5037850;28;20100;-23
2022/10/02 14:57:00;;;;;;;2.80;1.67;;;;;;;;;;5037167;28;20348;-25
2022/10/02 14:59:33;;;;;;;1.38;1.27;;;;;;;;;;5037239;28;20442;-24
2022/10/02 15:02:08;;;;;;;2.40;1.70;;;;;;;;;;5037115;28;20021;-24
2022/10/02 15:04:46;;;;;;;1.58;1.30;;;;;;;;;;5035638;28;20045;-23
2022/10/02 15:07:15;;;;;;;3.45;1.67;;;;;;;;;;5019633;28;20033;-23
2022/10/02 15:09:48;;;;;;;1.83;1.70;;;;;;;;;;5037558;28;20470;-23
2022/10/02 15:12:23;;;;;;;2.97;1.60;;;;;;;;;;5036878;28;20041;-22
2022/10/02 15:15:08;;;;;;;2.17;1.48;;;;;;;;;;5037063;28;20041;-23
2022/10/02 15:17:56;;;;;;;1.73;1.35;;;;;;;;;;5037155;28;20026;-24
2022/10/02 15:20:38;;;;;;;1.58;1.40;;;;;;;;;;5037589;28;20033;-23
2022/10/02 15:23:09;;;;;;;1.75;1.50;;;;;;;;;;5036912;28;20350;-28
2022/10/02 15:25:54;;;;;;;1.53;1.40;;;;;;;;;;5037373;28;20400;-24
2022/10/02 15:28:39;;;;;;;2.03;1.40;;;;;;;;;;5036948;28;20037;-23
2022/10/02 15:31:17;;;;;;;2.55;2.03;;;;;;;;;;5036547;28;20033;-23
2022/10/02 15:33:58;;;;;;;4.20;1.85;;;;;;;;;;5036464;28;20033;-23
2022/10/02 15:36:45;;;;;;;2.83;1.85;;;;;;;;;;5036679;28;20370;-25
2022/10/02 15:39:30;;;;;;;1.80;1.70;;;;;;;;;;5019723;28;20033;-22
2022/10/02 15:42:02;;;;;;;2.17;1.75;;;;;;;;;;5036608;28;20344;-23
2022/10/02 15:44:37;;;;;;;2.17;1.38;;;;;;;;;;5036626;28;20028;-24